MAU852 FAOR-FIMP
Flight info
| Callsign | MAU852 |
|---|---|
| Flight time | N/A |
| Altitude | 41000 |
| Route | EXOBI3B EXOBI UT122 ORNAD/N0437F270 UG653 SUNIR/N0479F410 UG653 GERAG DCT EPTEK EPTEK2E |
| Aircraft | A359/M-SDE2E3GHIJ1J3J4J5LM1ORWXY/LB1D1 |
Departure
| Time | 2026-05-07 16:38 |
|---|---|
| Airport | O.R. Tambo International Airport (FAOR) |
Arrival
| Time | N/A |
|---|---|
| Airport | Sir Seewoosagur Ramgoolam International Airport (FIMP) |
| Time | Latitude | Longitude | Altitude | Speed | Heading |
|---|---|---|---|---|---|
| 2026-05-07 16:09 | -26.13020 | 28.23367 | 5553 ft | 0 kts | 322° |
| 2026-05-07 16:25 | -26.13022 | 28.23369 | 5557 ft | 3 kts | 322° |
| 2026-05-07 16:25 | -26.13043 | 28.23387 | 5556 ft | 4 kts | 322° |
| 2026-05-07 16:25 | -26.13061 | 28.23402 | 5552 ft | 2 kts | 322° |
| 2026-05-07 16:26 | -26.13079 | 28.23416 | 5552 ft | 4 kts | 343° |
| 2026-05-07 16:26 | -26.13105 | 28.23418 | 5551 ft | 4 kts | 9° |
| 2026-05-07 16:26 | -26.13126 | 28.23415 | 5552 ft | 4 kts | 6° |
| 2026-05-07 16:26 | -26.13153 | 28.23411 | 5553 ft | 4 kts | 6° |
| 2026-05-07 16:27 | -26.13166 | 28.23409 | 5554 ft | 0 kts | 6° |
| 2026-05-07 16:31 | -26.13154 | 28.23414 | 5553 ft | 6 kts | 23° |
| 2026-05-07 16:32 | -26.13125 | 28.23456 | 5554 ft | 7 kts | 68° |
| 2026-05-07 16:32 | -26.13120 | 28.23516 | 5556 ft | 9 kts | 91° |
| 2026-05-07 16:32 | -26.13127 | 28.23604 | 5553 ft | 13 kts | 95° |
| 2026-05-07 16:32 | -26.13178 | 28.23675 | 5554 ft | 13 kts | 173° |
| 2026-05-07 16:33 | -26.13265 | 28.23657 | 5554 ft | 12 kts | 195° |
| 2026-05-07 16:33 | -26.13341 | 28.23635 | 5556 ft | 10 kts | 195° |
| 2026-05-07 16:33 | -26.13412 | 28.23613 | 5557 ft | 11 kts | 195° |
| 2026-05-07 16:33 | -26.13486 | 28.23591 | 5559 ft | 11 kts | 195° |
| 2026-05-07 16:34 | -26.13560 | 28.23568 | 5559 ft | 11 kts | 195° |
| 2026-05-07 16:34 | -26.13633 | 28.23546 | 5561 ft | 10 kts | 195° |
| 2026-05-07 16:34 | -26.13708 | 28.23523 | 5563 ft | 12 kts | 195° |
| 2026-05-07 16:34 | -26.13788 | 28.23498 | 5566 ft | 14 kts | 195° |
| 2026-05-07 16:35 | -26.13894 | 28.23466 | 5565 ft | 16 kts | 195° |
| 2026-05-07 16:35 | -26.13998 | 28.23434 | 5566 ft | 15 kts | 195° |
| 2026-05-07 16:35 | -26.14092 | 28.23405 | 5568 ft | 14 kts | 195° |
| 2026-05-07 16:35 | -26.14188 | 28.23375 | 5568 ft | 15 kts | 195° |
| 2026-05-07 16:36 | -26.14289 | 28.23343 | 5569 ft | 15 kts | 196° |
| 2026-05-07 16:36 | -26.14388 | 28.23312 | 5569 ft | 14 kts | 195° |
| 2026-05-07 16:36 | -26.14494 | 28.23283 | 5570 ft | 17 kts | 186° |
| 2026-05-07 16:36 | -26.14595 | 28.23327 | 5571 ft | 16 kts | 124° |
| 2026-05-07 16:37 | -26.14614 | 28.23433 | 5570 ft | 10 kts | 64° |
| 2026-05-07 16:37 | -26.14580 | 28.23451 | 5572 ft | 6 kts | 19° |
| 2026-05-07 16:37 | -26.14533 | 28.23467 | 5570 ft | 8 kts | 15° |
| 2026-05-07 16:37 | -26.14452 | 28.23492 | 5569 ft | 26 kts | 15° |
| 2026-05-07 16:38 | -26.14067 | 28.23612 | 5569 ft | 88 kts | 16° |
| 2026-05-07 16:38 | -26.13301 | 28.23849 | 5557 ft | 141 kts | 14° |
| 2026-05-07 16:38 | -26.12214 | 28.24189 | 5659 ft | 172 kts | 13° |
| 2026-05-07 16:38 | -26.11304 | 28.24455 | 6205 ft | 170 kts | 11° |
| 2026-05-07 16:39 | -26.10221 | 28.24755 | 6685 ft | 177 kts | 9° |
| 2026-05-07 16:39 | -26.09237 | 28.25013 | 6879 ft | 192 kts | 9° |
| 2026-05-07 16:39 | -26.07873 | 28.25359 | 7178 ft | 210 kts | 9° |
| 2026-05-07 16:39 | -26.06482 | 28.26041 | 7493 ft | 233 kts | 36° |
| 2026-05-07 16:40 | -26.05554 | 28.27544 | 7908 ft | 248 kts | 72° |
| 2026-05-07 16:40 | -26.05182 | 28.29475 | 8244 ft | 269 kts | 87° |
| 2026-05-07 16:40 | -26.05146 | 28.31630 | 8699 ft | 286 kts | 94° |
| 2026-05-07 16:40 | -26.05257 | 28.33885 | 9376 ft | 296 kts | 97° |
| 2026-05-07 16:41 | -26.05390 | 28.36211 | 10154 ft | 304 kts | 96° |
| 2026-05-07 16:41 | -26.05488 | 28.38621 | 10657 ft | 322 kts | 94° |
| 2026-05-07 16:41 | -26.05540 | 28.41183 | 11037 ft | 342 kts | 92° |
| 2026-05-07 16:41 | -26.05548 | 28.43905 | 11449 ft | 360 kts | 91° |
| 2026-05-07 16:42 | -26.05528 | 28.46719 | 11994 ft | 371 kts | 90° |
| 2026-05-07 16:42 | -26.05494 | 28.49631 | 12603 ft | 381 kts | 90° |